Time;durP1;ratioP1;P1;durP2;ratioP2;P2;SDS_P1;SDS_P2;PMS_P1;PMS_P2;Temp;Humidity;BMP_temperature;BMP_pressure;BME280_temperature;BME280_humidity;BME280_pressure;Samples;Min_cycle;Max_cycle;Signal;HPM_P1;HPM_P2
2023/06/10 00:01:30;;;;;;;26.70;25.40;;;24.90;66.80;;;;;;5071133;28;20447;-62
2023/06/10 00:03:57;;;;;;;27.93;26.37;;;24.90;66.40;;;;;;5074010;28;20553;-63
2023/06/10 00:06:24;;;;;;;27.40;26.00;;;24.90;66.40;;;;;;5074162;28;20479;-62
2023/06/10 00:08:51;;;;;;;28.23;26.83;;;24.90;66.30;;;;;;5073879;28;20569;-61
2023/06/10 00:11:18;;;;;;;26.83;25.37;;;24.90;66.20;;;;;;5073913;28;20505;-62
2023/06/10 00:13:46;;;;;;;27.23;25.73;;;24.80;66.10;;;;;;5074059;28;20551;-61
2023/06/10 00:16:13;;;;;;;28.00;26.37;;;24.90;66.60;;;;;;5074042;28;20547;-61
2023/06/10 00:18:39;;;;;;;28.47;26.97;;;24.80;66.50;;;;;;5074183;28;20531;-62
2023/06/10 00:21:06;;;;;;;27.70;26.37;;;24.90;66.50;;;;;;5074004;28;20534;-62
2023/06/10 00:23:37;;;;;;;27.43;26.13;;;24.90;66.70;;;;;;5074183;28;20554;-62
2023/06/10 00:26:04;;;;;;;27.23;25.83;;;24.80;66.70;;;;;;5073862;28;20534;-63
2023/06/10 00:28:31;;;;;;;26.73;25.33;;;24.80;66.60;;;;;;5073507;28;20471;-62
2023/06/10 00:31:00;;;;;;;28.10;26.70;;;24.70;66.70;;;;;;5073832;28;20481;-63
2023/06/10 00:33:26;;;;;;;27.83;26.33;;;24.70;66.60;;;;;;5073772;28;20471;-62
2023/06/10 00:35:53;;;;;;;28.03;26.53;;;24.60;67.00;;;;;;5073636;28;20530;-61
2023/06/10 00:38:20;;;;;;;27.67;26.17;;;24.40;67.00;;;;;;5073574;28;20875;-62
2023/06/10 00:40:47;;;;;;;27.00;25.67;;;24.50;67.80;;;;;;5073069;28;20526;-63
2023/06/10 00:43:14;;;;;;;28.17;26.20;;;24.40;68.40;;;;;;5073517;28;20558;-61
2023/06/10 00:45:41;;;;;;;27.67;26.27;;;24.50;68.60;;;;;;5073550;28;20478;-63
2023/06/10 00:48:10;;;;;;;27.47;26.07;;;24.50;68.90;;;;;;5073359;28;20562;-61
2023/06/10 00:50:39;;;;;;;27.20;25.80;;;24.50;68.90;;;;;;5073561;28;20534;-62
2023/06/10 00:53:07;;;;;;;27.63;26.20;;;24.50;68.80;;;;;;5073257;28;20471;-63
2023/06/10 00:55:34;;;;;;;28.17;26.83;;;24.60;68.70;;;;;;5073709;28;20482;-61
2023/06/10 00:58:01;;;;;;;28.33;26.80;;;24.50;68.70;;;;;;5073446;28;20435;-62
2023/06/10 01:00:28;;;;;;;27.77;26.37;;;24.50;69.10;;;;;;5073253;28;20447;-61
2023/06/10 01:02:55;;;;;;;27.13;25.73;;;24.50;69.00;;;;;;5073251;28;20590;-63
2023/06/10 01:05:24;;;;;;;28.07;26.67;;;24.50;69.20;;;;;;5073104;28;20957;-62
2023/06/10 01:07:57;;;;;;;28.30;26.90;;;24.50;69.40;;;;;;5071785;28;20475;-61
2023/06/10 01:10:29;;;;;;;27.37;25.77;;;24.40;69.60;;;;;;5057879;28;20474;-61
2023/06/10 01:13:02;;;;;;;27.43;26.03;;;24.40;69.90;;;;;;5072853;28;20469;-62
2023/06/10 01:15:30;;;;;;;30.57;29.03;;;24.40;69.70;;;;;;5073071;28;20478;-62
2023/06/10 01:17:58;;;;;;;29.13;27.67;;;24.40;70.10;;;;;;5072302;28;20471;-61
2023/06/10 01:20:28;;;;;;;27.53;26.13;;;24.40;70.10;;;;;;5072746;28;20444;-62
2023/06/10 01:22:57;;;;;;;28.63;26.93;;;24.40;70.30;;;;;;5073027;28;20554;-61
2023/06/10 01:25:27;;;;;;;27.20;25.90;;;24.30;70.40;;;;;;5072923;28;20454;-62
2023/06/10 01:27:59;;;;;;;27.73;26.33;;;24.20;70.50;;;;;;5072200;28;20532;-61
2023/06/10 01:30:33;;;;;;;29.33;27.40;;;24.10;69.90;;;;;;5072633;28;20514;-62
2023/06/10 01:33:02;;;;;;;29.00;27.50;;;24.10;70.40;;;;;;5072575;28;20467;-63
2023/06/10 01:35:31;;;;;;;27.63;26.33;;;24.10;70.60;;;;;;5072451;28;20458;-63
2023/06/10 01:38:01;;;;;;;29.80;28.40;;;24.10;71.10;;;;;;5072207;28;20535;-62
2023/06/10 01:40:30;;;;;;;32.20;30.57;;;24.00;71.80;;;;;;5072469;28;20527;-62
2023/06/10 01:42:57;;;;;;;30.73;29.13;;;24.00;72.10;;;;;;5072713;28;20497;-61
2023/06/10 01:45:24;;;;;;;31.07;29.57;;;24.00;72.00;;;;;;5072752;28;20534;-62
2023/06/10 01:47:51;;;;;;;31.17;29.77;;;24.00;72.10;;;;;;5072376;28;20562;-61
2023/06/10 01:50:18;;;;;;;32.67;30.97;;;24.00;71.90;;;;;;5072401;28;20474;-62
2023/06/10 01:52:45;;;;;;;31.93;30.37;;;23.90;72.40;;;;;;5072363;28;20495;-62
2023/06/10 01:55:13;;;;;;;32.23;30.53;;;23.90;72.80;;;;;;5072264;28;20826;-62
2023/06/10 01:57:40;;;;;;;31.10;29.50;;;23.90;73.00;;;;;;5072337;28;20490;-62
2023/06/10 02:00:08;;;;;;;32.47;30.77;;;23.80;73.60;;;;;;5072060;28;20573;-61
2023/06/10 02:02:35;;;;;;;32.40;30.80;;;23.70;73.70;;;;;;5071451;28;20538;-62
2023/06/10 02:05:02;;;;;;;31.10;29.60;;;23.70;74.20;;;;;;5072178;28;20857;-62
2023/06/10 02:07:29;;;;;;;31.63;29.90;;;23.70;74.70;;;;;;5072163;28;20443;-63
2023/06/10 02:09:56;;;;;;;32.97;31.23;;;23.70;74.50;;;;;;5071731;28;20569;-61
2023/06/10 02:12:24;;;;;;;32.93;31.23;;;23.70;74.60;;;;;;5071817;28;20482;-62
2023/06/10 02:14:51;;;;;;;33.10;31.40;;;23.70;74.00;;;;;;5072212;28;20786;-62
2023/06/10 02:17:19;;;;;;;28.47;26.87;;;23.80;73.60;;;;;;5071916;28;20883;-61
2023/06/10 02:19:52;;;;;;;28.60;27.00;;;23.70;73.30;;;;;;5071543;28;20482;-62
2023/06/10 02:22:21;;;;;;;29.10;27.40;;;23.70;72.90;;;;;;5072355;28;20526;-62
2023/06/10 02:24:48;;;;;;;28.53;27.00;;;23.70;73.00;;;;;;5071482;28;20538;-62
2023/06/10 02:27:15;;;;;;;28.77;27.10;;;23.60;72.50;;;;;;5072110;28;20534;-61
2023/06/10 02:29:44;;;;;;;29.53;28.00;;;23.60;72.70;;;;;;5071509;28;20525;-62
2023/06/10 02:32:11;;;;;;;28.53;26.93;;;23.60;72.80;;;;;;5071827;28;20483;-61
2023/06/10 02:34:38;;;;;;;28.57;26.97;;;23.60;72.90;;;;;;5071588;28;20523;-64
2023/06/10 02:37:05;;;;;;;29.50;27.77;;;23.50;73.20;;;;;;5071848;28;20830;-61
2023/06/10 02:39:32;;;;;;;28.30;26.70;;;23.50;73.00;;;;;;5071217;28;20518;-62
2023/06/10 02:41:59;;;;;;;28.07;26.57;;;23.60;73.50;;;;;;5072008;28;20477;-63
2023/06/10 02:44:25;;;;;;;29.53;27.97;;;23.60;73.30;;;;;;5071704;28;20554;-61
2023/06/10 02:46:54;;;;;;;29.00;27.20;;;23.70;73.00;;;;;;5072260;28;20526;-61
2023/06/10 02:49:23;;;;;;;28.37;26.77;;;23.70;72.80;;;;;;5071990;28;20486;-63
2023/06/10 02:51:56;;;;;;;28.70;27.10;;;23.80;73.10;;;;;;5072107;28;20458;-63
2023/06/10 02:54:28;;;;;;;29.70;27.60;;;23.80;72.80;;;;;;5072163;28;21041;-59
2023/06/10 02:59:44;;;;;;;29.07;27.57;;;23.80;72.60;;;;;;5058117;28;20519;-63
2023/06/10 03:02:12;;;;;;;28.90;27.30;;;23.90;72.60;;;;;;5071234;28;20483;-62
2023/06/10 03:04:39;;;;;;;28.57;26.97;;;23.90;72.40;;;;;;5072022;28;21069;-55
2023/06/10 03:07:07;;;;;;;29.00;27.40;;;23.90;72.20;;;;;;5071319;28;20526;-59
2023/06/10 03:09:34;;;;;;;28.97;27.50;;;24.00;72.20;;;;;;5070873;28;20562;-58
2023/06/10 03:12:01;;;;;;;28.50;27.00;;;24.00;72.10;;;;;;5071171;28;20534;-54
2023/06/10 03:14:28;;;;;;;28.90;27.03;;;24.00;71.90;;;;;;5070459;28;20558;-56
2023/06/10 03:16:55;;;;;;;28.57;26.97;;;24.00;71.80;;;;;;5071085;28;20539;-59
2023/06/10 03:19:23;;;;;;;27.27;25.90;;;24.10;71.70;;;;;;5070981;28;20822;-61
2023/06/10 03:22:00;;;;;;;29.23;27.30;;;24.10;71.50;;;;;;5071069;28;20471;-56
2023/06/10 03:24:27;;;;;;;28.77;27.17;;;24.10;71.30;;;;;;5071048;28;20716;-60
2023/06/10 03:26:54;;;;;;;28.60;27.00;;;24.10;70.90;;;;;;5070902;28;20530;-59
2023/06/10 03:29:21;;;;;;;28.67;26.97;;;24.10;71.30;;;;;;5070830;28;20574;-55
2023/06/10 03:31:48;;;;;;;27.93;26.43;;;24.10;73.20;;;;;;5070978;28;20534;-59
2023/06/10 03:34:15;;;;;;;29.40;27.70;;;24.10;73.90;;;;;;5070688;28;20467;-55
2023/06/10 03:36:43;;;;;;;29.17;27.40;;;24.10;74.40;;;;;;5071638;28;20522;-54
2023/06/10 03:39:11;;;;;;;28.40;26.90;;;24.10;73.90;;;;;;5074448;28;20450;-60
2023/06/10 03:41:38;;;;;;;29.10;27.47;;;24.20;73.70;;;;;;5074655;28;20942;-60
2023/06/10 03:44:05;;;;;;;27.90;26.40;;;24.20;73.50;;;;;;5074289;28;20551;-59
2023/06/10 03:46:32;;;;;;;28.77;27.10;;;24.20;72.80;;;;;;5074548;28;20525;-60
2023/06/10 03:49:00;;;;;;;28.50;27.00;;;24.30;72.20;;;;;;5074186;28;20570;-59
2023/06/10 03:51:27;;;;;;;27.33;25.93;;;24.30;71.90;;;;;;5074472;28;20447;-58
2023/06/10 03:53:55;;;;;;;27.90;26.20;;;24.30;71.70;;;;;;5074511;28;20542;-61
2023/06/10 03:56:22;;;;;;;27.70;26.07;;;24.30;71.30;;;;;;5074164;28;20527;-59
2023/06/10 03:58:49;;;;;;;28.13;26.63;;;24.30;71.00;;;;;;5074063;28;20474;-58
2023/06/10 04:01:17;;;;;;;28.83;27.33;;;24.40;70.80;;;;;;5074532;28;20847;-59
2023/06/10 04:03:44;;;;;;;28.00;26.60;;;24.40;70.60;;;;;;5073914;28;20475;-59
2023/06/10 04:06:11;;;;;;;28.50;27.10;;;24.40;70.30;;;;;;5074146;28;20530;-60
2023/06/10 04:08:39;;;;;;;28.13;26.73;;;24.40;70.30;;;;;;5073554;28;20570;-59
2023/06/10 04:11:07;;;;;;;29.17;27.47;;;24.40;70.20;;;;;;5073897;28;20451;-59
2023/06/10 04:13:34;;;;;;;29.43;27.83;;;24.40;70.00;;;;;;5074042;28;20494;-59
2023/06/10 04:16:01;;;;;;;30.27;28.40;;;24.40;69.90;;;;;;5074069;28;20539;-59
2023/06/10 04:18:28;;;;;;;29.37;27.77;;;24.50;69.90;;;;;;5073726;28;20857;-58
2023/06/10 04:20:55;;;;;;;29.10;27.50;;;24.50;69.70;;;;;;5073731;28;20519;-59
2023/06/10 04:23:22;;;;;;;29.27;27.67;;;24.50;69.60;;;;;;5073846;28;20471;-59
2023/06/10 04:25:49;;;;;;;30.30;28.70;;;24.50;69.60;;;;;;5073881;28;20546;-58
2023/06/10 04:28:17;;;;;;;28.97;27.50;;;24.50;69.50;;;;;;5073659;28;20526;-59
2023/06/10 04:30:44;;;;;;;27.90;26.60;;;24.50;69.50;;;;;;5073573;28;20562;-58
2023/06/10 04:33:11;;;;;;;29.13;27.53;;;24.50;69.30;;;;;;5073361;28;20497;-59
2023/06/10 04:35:38;;;;;;;28.20;26.70;;;24.50;69.20;;;;;;5073705;28;20942;-60
2023/06/10 04:38:05;;;;;;;28.37;26.90;;;24.50;69.20;;;;;;5073534;28;20534;-60
2023/06/10 04:40:32;;;;;;;28.80;27.00;;;24.50;69.10;;;;;;5073213;28;20531;-55
2023/06/10 04:42:59;;;;;;;28.47;26.70;;;24.60;69.40;;;;;;5073503;28;20491;-54
2023/06/10 04:45:28;;;;;;;27.40;25.90;;;24.50;70.60;;;;;;5073526;28;20934;-59
2023/06/10 04:47:55;;;;;;;28.93;27.20;;;24.60;71.70;;;;;;5072500;28;20451;-58
2023/06/10 04:50:22;;;;;;;27.83;26.33;;;24.60;72.00;;;;;;5073144;28;20981;-59
2023/06/10 04:52:49;;;;;;;28.43;26.83;;;24.70;72.10;;;;;;5073472;28;20559;-55
2023/06/10 04:55:17;;;;;;;27.30;25.90;;;24.70;72.10;;;;;;5073353;28;20530;-59
2023/06/10 04:57:44;;;;;;;27.40;26.00;;;24.70;71.70;;;;;;5072847;28;20530;-58
2023/06/10 05:00:12;;;;;;;27.70;26.30;;;24.70;71.80;;;;;;5073210;28;20482;-58
2023/06/10 05:02:40;;;;;;;27.63;26.03;;;24.80;71.70;;;;;;5073023;28;20942;-58
2023/06/10 05:05:08;;;;;;;27.20;25.80;;;24.90;72.20;;;;;;5073233;28;20530;-55
2023/06/10 05:07:34;;;;;;;27.10;25.53;;;25.00;72.00;;;;;;5073008;28;20478;-60
2023/06/10 05:10:02;;;;;;;27.53;26.07;;;25.10;72.00;;;;;;5072453;28;21092;-57
2023/06/10 05:12:29;;;;;;;27.57;26.10;;;25.20;71.50;;;;;;5072742;28;20968;-55
2023/06/10 05:14:56;;;;;;;27.53;26.00;;;25.20;71.50;;;;;;5072933;28;20869;-56
2023/06/10 05:17:25;;;;;;;27.93;26.43;;;25.20;71.60;;;;;;5072743;28;20450;-58
2023/06/10 05:19:53;;;;;;;27.37;25.87;;;25.30;71.50;;;;;;5072453;28;20496;-59
2023/06/10 05:22:20;;;;;;;26.97;25.57;;;25.20;71.20;;;;;;5072518;28;20534;-56
2023/06/10 05:24:47;;;;;;;26.87;25.47;;;25.40;72.70;;;;;;5072696;28;20972;-57
2023/06/10 05:27:13;;;;;;;27.77;26.23;;;25.40;72.40;;;;;;5072743;28;21205;-54
2023/06/10 05:29:41;;;;;;;27.27;25.90;;;25.50;71.80;;;;;;5072358;28;20908;-58
2023/06/10 05:32:09;;;;;;;27.63;26.23;;;25.50;71.90;;;;;;5071655;28;20446;-60
2023/06/10 05:34:36;;;;;;;27.17;25.77;;;25.50;71.60;;;;;;5072439;28;20259;-55
2023/06/10 05:37:05;;;;;;;27.17;25.87;;;25.70;71.60;;;;;;5072598;28;20530;-53
2023/06/10 05:39:31;;;;;;;29.20;27.60;;;25.70;71.20;;;;;;5072179;28;20542;-53
2023/06/10 05:42:01;;;;;;;28.07;26.47;;;25.70;69.30;;;;;;5072140;28;20498;-54
2023/06/10 05:44:28;;;;;;;28.10;26.60;;;25.80;69.60;;;;;;5072300;28;20525;-53
2023/06/10 05:46:54;;;;;;;28.97;27.30;;;25.80;69.10;;;;;;5072303;28;20482;-51
2023/06/10 05:49:21;;;;;;;28.40;26.97;;;25.80;68.30;;;;;;5071989;28;20570;-54
2023/06/10 05:51:48;;;;;;;27.77;26.10;;;25.80;67.70;;;;;;5072308;28;20538;-53
2023/06/10 05:54:16;;;;;;;27.83;26.17;;;25.90;66.70;;;;;;5071858;28;20495;-51
2023/06/10 05:56:43;;;;;;;27.13;25.70;;;25.90;66.20;;;;;;5072203;28;20678;-52
2023/06/10 05:59:10;;;;;;;27.73;26.27;;;25.90;65.40;;;;;;5071135;28;20443;-55
2023/06/10 06:01:37;;;;;;;28.87;27.37;;;25.90;65.20;;;;;;5072015;28;20470;-51
2023/06/10 06:04:04;;;;;;;28.53;27.07;;;26.00;64.50;;;;;;5071552;28;20518;-51
2023/06/10 06:06:31;;;;;;;29.10;27.50;;;26.00;64.50;;;;;;5071966;28;20513;-53
2023/06/10 06:08:58;;;;;;;27.53;26.13;;;26.10;64.50;;;;;;5071558;28;20486;-54
2023/06/10 06:11:26;;;;;;;28.83;26.93;;;26.00;64.50;;;;;;5071859;28;20521;-53
2023/06/10 06:13:53;;;;;;;26.53;25.23;;;26.00;65.20;;;;;;5071721;28;20506;-53
2023/06/10 06:16:20;;;;;;;27.90;26.40;;;26.00;64.20;;;;;;5071558;28;20527;-53
2023/06/10 06:18:47;;;;;;;28.20;26.80;;;26.00;63.90;;;;;;5071511;28;20475;-53
2023/06/10 06:21:14;;;;;;;28.17;26.87;;;25.90;63.00;;;;;;5071600;28;20559;-53
2023/06/10 06:23:41;;;;;;;28.07;26.57;;;26.00;63.60;;;;;;5071390;28;20550;-57
2023/06/10 06:26:08;;;;;;;27.23;25.83;;;26.10;62.50;;;;;;5071665;28;20534;-53
2023/06/10 06:28:36;;;;;;;27.23;25.93;;;26.10;63.70;;;;;;5071412;28;20483;-56
2023/06/10 06:31:03;;;;;;;27.87;26.37;;;26.20;63.70;;;;;;5071288;28;20562;-58
2023/06/10 06:33:30;;;;;;;26.57;25.20;;;26.20;63.20;;;;;;5071199;28;20498;-56
2023/06/10 06:35:57;;;;;;;27.03;25.63;;;26.20;63.80;;;;;;5071773;28;20478;-59
2023/06/10 06:38:24;;;;;;;26.80;25.37;;;26.30;64.30;;;;;;5071398;28;20475;-56
2023/06/10 06:40:51;;;;;;;27.50;25.90;;;26.30;63.50;;;;;;5071408;28;20529;-57
2023/06/10 06:43:18;;;;;;;26.63;25.23;;;26.30;63.20;;;;;;5071144;28;20546;-56
2023/06/10 06:45:46;;;;;;;27.43;26.00;;;26.40;63.40;;;;;;5071381;28;20454;-59
2023/06/10 06:48:14;;;;;;;27.27;25.97;;;26.40;63.20;;;;;;5070933;28;20538;-58
2023/06/10 06:50:41;;;;;;;27.10;25.67;;;26.50;62.80;;;;;;5070637;28;20623;-57
2023/06/10 06:53:08;;;;;;;27.23;25.87;;;26.40;62.50;;;;;;5071012;28;20220;-53
2023/06/10 06:55:35;;;;;;;27.73;26.30;;;26.50;62.00;;;;;;5071324;28;20533;-56
2023/06/10 06:58:03;;;;;;;28.30;26.97;;;26.60;61.20;;;;;;5071014;28;20490;-56
2023/06/10 07:00:30;;;;;;;27.33;26.03;;;26.60;61.00;;;;;;5071215;28;20446;-53
2023/06/10 07:02:59;;;;;;;26.70;25.40;;;26.60;60.90;;;;;;5070607;28;20553;-54
2023/06/10 07:05:27;;;;;;;27.00;25.60;;;26.60;60.80;;;;;;5071120;28;20525;-53
2023/06/10 07:07:55;;;;;;;26.67;25.27;;;26.60;60.40;;;;;;5070302;28;20806;-56
2023/06/10 07:10:22;;;;;;;28.37;26.97;;;26.60;60.30;;;;;;5071340;28;20232;-52
2023/06/10 07:12:49;;;;;;;27.53;26.20;;;26.70;60.80;;;;;;5074611;28;20459;-58
2023/06/10 07:15:16;;;;;;;28.30;26.90;;;26.70;60.00;;;;;;5075251;28;20865;-57
2023/06/10 07:17:43;;;;;;;27.60;26.20;;;26.70;60.00;;;;;;5075104;28;20527;-61
2023/06/10 07:20:13;;;;;;;28.50;27.10;;;26.70;59.10;;;;;;5074853;28;20989;-60
2023/06/10 07:22:40;;;;;;;29.47;27.87;;;26.60;58.50;;;;;;5074656;28;20463;-61
2023/06/10 07:25:08;;;;;;;30.43;28.43;;;26.60;59.00;;;;;;5074867;28;20938;-61
2023/06/10 07:27:35;;;;;;;27.40;26.03;;;26.60;58.80;;;;;;5074863;28;20526;-56
2023/06/10 07:30:03;;;;;;;27.93;26.53;;;26.60;59.40;;;;;;5074090;28;20541;-54
2023/06/10 07:32:29;;;;;;;29.97;28.00;;;26.60;58.90;;;;;;5074541;28;20880;-60
2023/06/10 07:34:56;;;;;;;30.53;28.83;;;26.70;59.00;;;;;;5074922;28;20470;-53
2023/06/10 07:37:24;;;;;;;30.20;28.30;;;26.70;59.20;;;;;;5074833;28;20542;-53
2023/06/10 07:39:51;;;;;;;29.10;27.10;;;26.70;59.10;;;;;;5074357;28;20521;-55
2023/06/10 07:42:18;;;;;;;28.80;27.33;;;26.70;59.40;;;;;;5074490;28;20976;-58
2023/06/10 07:44:45;;;;;;;29.10;27.60;;;26.80;59.40;;;;;;5074366;28;20869;-56
2023/06/10 07:47:12;;;;;;;28.27;26.57;;;26.70;58.90;;;;;;5074673;28;20859;-55
2023/06/10 07:49:39;;;;;;;28.80;27.40;;;26.70;59.00;;;;;;5074173;28;21002;-59
2023/06/10 07:52:07;;;;;;;28.77;27.17;;;26.80;58.90;;;;;;5074241;28;20447;-53
2023/06/10 07:54:35;;;;;;;29.57;27.97;;;26.70;58.30;;;;;;5074283;28;20491;-58
2023/06/10 07:57:02;;;;;;;29.00;27.50;;;26.70;58.40;;;;;;5074417;28;20534;-58
2023/06/10 07:59:29;;;;;;;28.40;26.90;;;26.80;58.30;;;;;;5073836;28;20529;-59
2023/06/10 08:01:56;;;;;;;28.87;27.37;;;26.80;58.20;;;;;;5073977;28;20475;-54
2023/06/10 08:04:23;;;;;;;29.40;27.80;;;26.80;58.30;;;;;;5074087;28;20940;-57
2023/06/10 08:06:50;;;;;;;29.47;27.87;;;26.80;58.20;;;;;;5074227;28;20454;-54
2023/06/10 08:09:18;;;;;;;29.03;27.43;;;26.70;58.60;;;;;;5074022;28;20873;-54
2023/06/10 08:11:47;;;;;;;29.23;27.43;;;26.70;58.30;;;;;;5073938;28;20565;-57
2023/06/10 08:14:14;;;;;;;29.70;27.37;;;26.70;58.70;;;;;;5073688;28;20495;-58
2023/06/10 08:16:41;;;;;;;29.87;28.20;;;26.70;58.80;;;;;;5074001;28;20522;-57
2023/06/10 08:19:09;;;;;;;29.57;28.07;;;26.70;59.40;;;;;;5073848;28;20526;-57
2023/06/10 08:21:36;;;;;;;31.33;29.33;;;26.70;59.90;;;;;;5073698;28;20471;-55
2023/06/10 08:24:03;;;;;;;30.17;28.37;;;26.80;59.70;;;;;;5073049;28;20466;-57
2023/06/10 08:26:30;;;;;;;30.83;28.97;;;26.80;59.40;;;;;;5073809;28;20479;-57
2023/06/10 08:28:58;;;;;;;29.27;27.67;;;26.80;59.30;;;;;;5073619;28;20522;-56
2023/06/10 08:31:25;;;;;;;29.70;28.20;;;26.80;58.80;;;;;;5073924;28;20571;-62
2023/06/10 08:33:52;;;;;;;28.97;27.27;;;26.80;58.50;;;;;;5074063;28;20553;-59
2023/06/10 08:36:19;;;;;;;30.03;28.53;;;26.80;58.50;;;;;;5074839;28;20467;-61
2023/06/10 08:38:46;;;;;;;28.43;27.03;;;26.80;58.60;;;;;;5074653;28;20530;-60
2023/06/10 08:41:18;;;;;;;28.00;26.50;;;26.80;59.30;;;;;;5073529;28;20474;-58
2023/06/10 08:43:49;;;;;;;28.10;26.47;;;26.80;59.00;;;;;;5073721;28;20887;-60
2023/06/10 08:46:17;;;;;;;28.40;27.00;;;26.80;58.80;;;;;;5073627;28;20462;-60
2023/06/10 08:48:45;;;;;;;28.70;27.30;;;26.80;58.40;;;;;;5073863;28;20518;-58
2023/06/10 08:51:12;;;;;;;26.70;25.40;;;26.80;58.50;;;;;;5073349;28;20471;-57
2023/06/10 08:53:45;;;;;;;28.93;27.37;;;26.80;58.20;;;;;;5073505;28;20459;-58
2023/06/10 08:56:13;;;;;;;27.93;26.50;;;26.80;58.70;;;;;;5073282;28;20533;-58
2023/06/10 08:58:41;;;;;;;27.73;26.33;;;26.80;58.50;;;;;;5073231;28;20483;-57
2023/06/10 09:01:09;;;;;;;27.97;26.37;;;26.80;58.30;;;;;;5072987;28;20535;-57
2023/06/10 09:03:38;;;;;;;27.70;26.30;;;26.80;59.00;;;;;;5115793;22;20859;-60
2023/06/10 09:06:06;;;;;;;29.10;27.50;;;26.90;60.30;;;;;;5066424;28;20854;-57
2023/06/10 09:08:35;;;;;;;27.87;26.47;;;27.00;61.80;;;;;;5074198;28;20455;-56
2023/06/10 09:11:02;;;;;;;27.90;26.60;;;27.00;64.30;;;;;;5074130;28;20501;-56
2023/06/10 09:13:29;;;;;;;28.60;27.20;;;27.00;61.90;;;;;;5074185;28;20505;-55
2023/06/10 09:16:00;;;;;;;27.20;25.90;;;27.00;61.60;;;;;;5074191;28;20534;-57
2023/06/10 09:18:27;;;;;;;28.07;26.37;;;27.10;61.00;;;;;;5074188;28;20450;-58
2023/06/10 09:20:56;;;;;;;29.33;27.73;;;27.10;62.80;;;;;;5074359;28;20470;-58
2023/06/10 09:23:23;;;;;;;28.90;27.40;;;27.10;63.00;;;;;;5074557;28;20549;-59
2023/06/10 09:25:57;;;;;;;29.90;28.47;;;27.10;62.50;;;;;;5075248;28;20879;-53
2023/06/10 09:28:25;;;;;;;30.17;28.40;;;27.10;63.20;;;;;;5072320;28;20446;-60
2023/06/10 09:31:03;;;;;;;29.47;28.00;;;27.10;62.10;;;;;;5072404;28;20582;-59
2023/06/10 09:33:30;;;;;;;27.97;26.47;;;27.10;61.30;;;;;;5072321;28;20538;-56
2023/06/10 09:36:01;;;;;;;28.80;27.30;;;27.10;60.90;;;;;;5084173;28;20538;-59
2023/06/10 09:38:31;;;;;;;29.43;27.83;;;27.20;61.90;;;;;;5092698;28;20450;-61
2023/06/10 09:40:58;;;;;;;29.83;28.30;;;27.20;62.50;;;;;;5074590;28;20443;-61
2023/06/10 09:43:40;;;;;;;29.50;27.90;;;27.20;61.70;;;;;;5072335;28;20775;-60
2023/06/10 09:46:07;;;;;;;29.87;28.37;;;27.20;61.20;;;;;;5072232;28;20938;-59
2023/06/10 09:48:36;;;;;;;29.23;27.73;;;27.30;61.50;;;;;;5072165;28;20497;-58
2023/06/10 09:51:09;;;;;;;29.30;27.80;;;27.30;61.30;;;;;;5072049;28;20573;-59
2023/06/10 09:53:37;;;;;;;29.53;28.03;;;27.30;60.60;;;;;;5072223;28;20495;-60
2023/06/10 09:56:04;;;;;;;29.17;27.67;;;27.30;61.80;;;;;;5072028;28;20526;-61
2023/06/10 09:58:38;;;;;;;29.07;27.57;;;27.30;61.50;;;;;;5071923;28;20547;-59
2023/06/10 10:01:10;;;;;;;28.87;27.37;;;27.30;60.70;;;;;;5072124;28;20500;-58
2023/06/10 10:03:45;;;;;;;31.17;29.47;;;27.40;60.70;;;;;;5071838;28;20514;-55
2023/06/10 10:06:15;;;;;;;29.63;28.13;;;27.40;61.80;;;;;;5071798;28;20447;-60
2023/06/10 10:08:43;;;;;;;32.57;30.83;;;27.40;61.30;;;;;;5071775;28;20470;-62
2023/06/10 10:11:10;;;;;;;29.60;28.10;;;27.40;61.50;;;;;;5071577;28;21022;-62
2023/06/10 10:13:38;;;;;;;30.03;28.63;;;27.40;61.90;;;;;;5071829;28;20919;-56
2023/06/10 10:16:10;;;;;;;30.60;29.10;;;27.40;61.80;;;;;;5071769;28;20475;-60
2023/06/10 10:18:41;;;;;;;29.90;28.30;;;27.50;61.50;;;;;;5071817;28;20631;-58
2023/06/10 10:21:14;;;;;;;29.47;27.87;;;27.50;63.20;;;;;;5071776;28;20852;-56
2023/06/10 10:23:47;;;;;;;31.07;29.23;;;27.50;63.50;;;;;;5069463;28;20805;-59
2023/06/10 10:26:15;;;;;;;29.60;28.00;;;27.60;62.60;;;;;;5071631;28;20534;-58
2023/06/10 10:28:48;;;;;;;30.07;28.47;;;27.60;62.40;;;;;;5070998;28;21008;-63
2023/06/10 10:31:19;;;;;;;29.40;27.90;;;27.60;61.10;;;;;;5071465;28;20566;-61
2023/06/10 10:33:56;;;;;;;29.60;27.93;;;27.50;61.10;;;;;;5071486;28;20502;-63
2023/06/10 10:36:24;;;;;;;30.23;28.73;;;27.50;60.80;;;;;;5071522;28;20451;-61
2023/06/10 10:38:52;;;;;;;30.17;28.63;;;27.40;60.80;;;;;;5071258;28;20501;-62
2023/06/10 10:41:21;;;;;;;29.50;28.10;;;27.40;60.80;;;;;;5071440;28;20497;-61
2023/06/10 10:43:48;;;;;;;29.00;27.50;;;27.30;60.70;;;;;;5071381;28;20474;-59
2023/06/10 10:46:17;;;;;;;29.30;27.90;;;27.30;60.70;;;;;;5070982;28;20451;-62
2023/06/10 10:48:44;;;;;;;29.23;27.70;;;27.30;60.80;;;;;;5071280;28;20938;-61
2023/06/10 10:51:12;;;;;;;29.10;27.70;;;27.30;60.80;;;;;;5071222;28;20601;-62
2023/06/10 10:53:44;;;;;;;29.13;27.70;;;27.30;60.70;;;;;;5071301;28;20506;-62
2023/06/10 10:56:15;;;;;;;30.50;29.00;;;27.20;60.90;;;;;;5071455;28;20932;-62
2023/06/10 10:58:42;;;;;;;30.23;28.50;;;27.20;60.70;;;;;;5071939;28;20467;-62
2023/06/10 11:01:14;;;;;;;28.40;27.00;;;27.10;60.90;;;;;;5073527;28;20475;-63
2023/06/10 11:03:46;;;;;;;30.47;28.97;;;27.10;60.90;;;;;;5073481;28;20486;-63
2023/06/10 11:06:15;;;;;;;28.13;26.63;;;27.10;60.90;;;;;;5073729;28;20953;-62
2023/06/10 11:08:50;;;;;;;29.40;27.90;;;27.00;60.90;;;;;;5073624;28;20457;-62
2023/06/10 11:11:22;;;;;;;28.53;27.03;;;27.00;60.90;;;;;;5072469;28;21008;-54
2023/06/10 11:14:10;;;;;;;29.07;27.37;;;27.10;62.00;;;;;;5071181;28;20550;-62
2023/06/10 11:16:42;;;;;;;30.17;28.57;;;27.10;62.50;;;;;;5071576;28;20451;-64
2023/06/10 11:19:09;;;;;;;30.80;28.90;;;27.20;60.70;;;;;;5071507;28;20451;-63
2023/06/10 11:21:59;;;;;;;29.30;27.60;;;27.20;61.60;;;;;;5071419;28;20884;-60
2023/06/10 11:24:29;;;;;;;29.77;28.27;;;27.20;59.60;;;;;;5073374;28;20468;-62
2023/06/10 11:27:15;;;;;;;30.00;28.50;;;27.30;60.30;;;;;;5071968;28;20862;-63
2023/06/10 11:29:56;;;;;;;30.10;28.50;;;27.30;58.90;;;;;;5071597;28;20530;-62
2023/06/10 11:32:24;;;;;;;29.50;27.90;;;27.30;59.30;;;;;;5071752;28;20570;-62
2023/06/10 11:34:54;;;;;;;30.27;28.57;;;27.40;58.50;;;;;;5072007;28;20463;-62
2023/06/10 11:37:22;;;;;;;30.60;29.00;;;27.40;57.90;;;;;;5071975;28;20818;-61
2023/06/10 11:39:53;;;;;;;29.13;27.63;;;27.50;58.00;;;;;;5071529;28;20973;-61
2023/06/10 11:42:21;;;;;;;29.50;28.00;;;27.50;57.80;;;;;;5072394;28;20522;-59
2023/06/10 11:44:51;;;;;;;31.80;30.10;;;27.50;57.80;;;;;;5072425;28;20458;-61
2023/06/10 11:47:18;;;;;;;32.40;30.70;;;27.50;57.00;;;;;;5071354;28;20450;-63
2023/06/10 11:49:46;;;;;;;41.53;38.97;;;27.50;57.90;;;;;;5070555;28;20904;-63
2023/06/10 11:52:14;;;;;;;46.17;43.27;;;27.50;57.40;;;;;;5070640;28;20483;-62
2023/06/10 11:54:41;;;;;;;97.43;91.40;;;27.60;57.20;;;;;;5070755;28;20499;-62
2023/06/10 11:57:10;;;;;;;89.10;83.20;;;27.60;57.20;;;;;;5070889;28;20531;-63
2023/06/10 11:59:36;;;;;;;85.43;79.93;;;27.60;57.20;;;;;;5074189;28;20954;-60
2023/06/10 12:02:03;;;;;;;78.07;73.10;;;27.70;57.50;;;;;;5081888;28;20458;-60
2023/06/10 12:04:30;;;;;;;76.60;71.43;;;27.60;57.50;;;;;;5074934;28;20471;-63
2023/06/10 12:06:57;;;;;;;92.43;86.67;;;27.70;57.70;;;;;;5074356;28;20485;-62
2023/06/10 12:09:26;;;;;;;90.07;84.63;;;27.70;58.10;;;;;;5073897;28;20526;-63
2023/06/10 12:11:55;;;;;;;75.53;71.23;;;27.80;58.30;;;;;;5074230;28;20924;-62
2023/06/10 12:14:56;;;;;;;54.40;51.40;;;27.80;57.80;;;;;;5075132;28;20492;-61
2023/06/10 12:17:24;;;;;;;43.90;41.17;;;27.80;57.60;;;;;;5071055;28;20839;-59
2023/06/10 12:19:51;;;;;;;39.10;36.90;;;27.80;57.10;;;;;;5074299;28;20539;-60
2023/06/10 12:22:19;;;;;;;42.00;39.70;;;27.80;56.80;;;;;;5076540;28;20478;-62
2023/06/10 12:24:46;;;;;;;35.00;33.10;;;27.80;57.10;;;;;;5085238;28;20470;-62
2023/06/10 12:27:14;;;;;;;32.20;30.60;;;27.80;56.50;;;;;;5101642;28;20470;-62
2023/06/10 12:29:51;;;;;;;29.90;28.40;;;27.90;56.10;;;;;;5080763;28;20471;-58
2023/06/10 12:32:20;;;;;;;29.90;28.30;;;27.90;55.50;;;;;;5078449;28;20558;-60
2023/06/10 12:34:47;;;;;;;30.93;29.23;;;27.90;55.30;;;;;;5073399;28;20463;-61
2023/06/10 12:37:14;;;;;;;31.33;29.20;;;27.90;56.60;;;;;;5073325;28;20443;-59